This is the latest recevied weather packets stored in our database for station/object JF1AJE-13. If no packets are shown the sender has not sent any weather packets the latest 10 day(s).
| Time | Temp. | Humidity | Pressure | Rain* | Wind** | Luminosity | Snow |
|---|---|---|---|---|---|---|---|
| 1777919151 | 12.78° C | 40% | 1009.9 hPa | 0 mm | - | - | - |
| 1777917952 | 12.78° C | 41% | 1009.3 hPa | 0 mm | - | - | - |
| 1777916753 | 12.78° C | 41% | 1008.6 hPa | 0 mm | - | - | - |
| 1777915551 | 12.22° C | 43% | 1008 hPa | 0 mm | - | - | - |
| 1777914352 | 12.22° C | 44% | 1007.5 hPa | 0 mm | - | - | - |
| 1777913152 | 12.78° C | 43% | 1007.2 hPa | 0 mm | - | - | - |
| 1777911952 | 12.78° C | 42% | 1006.2 hPa | 0 mm | - | - | - |
| 1777910751 | 12.78° C | 43% | 1006.2 hPa | 0 mm | - | - | - |
| 1777909552 | 13.33° C | 43% | 1006.2 hPa | 0 mm | - | - | - |
| 1777908352 | 13.33° C | 44% | 1005.1 hPa | 0 mm | - | - | - |
| 1777907151 | 14.44° C | 45% | 1004.5 hPa | 0 mm | - | - | - |
| 1777905952 | 14.44° C | 47% | 1004.1 hPa | 0 mm | - | - | - |
| 1777904752 | 14.44° C | 47% | 1003.4 hPa | 0 mm | - | - | - |
| 1777903551 | 15° C | 47% | 1003.1 hPa | 0 mm | - | - | - |
| 1777902350 | 15° C | 47% | 1002.8 hPa | 0 mm | - | - | - |
| 1777901151 | 15.56° C | 47% | 1002 hPa | 0 mm | - | - | - |
| 1777898759 | 16.11° C | 44% | 1001.1 hPa | 0 mm | - | - | - |
| 1777897551 | 16.67° C | 44% | 1000.4 hPa | 0 mm | - | - | - |
| 1777896350 | 17.22° C | 41% | 1000 hPa | 0 mm | - | - | - |
| 1777895152 | 18.33° C | 40% | 999.5 hPa | 0 mm | - | - | - |
| 1777893952 | 18.33° C | 41% | 998.3 hPa | 0 mm | - | - | - |
| 1777892751 | 18.89° C | 40% | 997.4 hPa | 0 mm | - | - | - |
| 1777891552 | 19.44° C | 39% | 996.4 hPa | 0 mm | - | - | - |
| 1777890352 | 21.11° C | 34% | 995.3 hPa | 0 mm | - | - | - |
| 1777889152 | 22.78° C | 27% | 994.9 hPa | 0 mm | - | - | - |
* Rain latest hour (hover to see other rain measurements)
** Current wind speed in m/s (hover to see current wind gust speed)